Time;durP1;ratioP1;P1;durP2;ratioP2;P2;SDS_P1;SDS_P2;PMS_P1;PMS_P2;Temp;Humidity;BMP_temperature;BMP_pressure;BME280_temperature;BME280_humidity;BME280_pressure;Samples;Min_cycle;Max_cycle;Signal;HPM_P1;HPM_P2
2021/09/12 00:00:11;;;;;;;17.13;13.75;;;;;;;;;;5094578;28;20024;-61
2021/09/12 00:02:37;;;;;;;14.05;12.68;;;;;;;;;;5094938;28;20026;-60
2021/09/12 00:05:03;;;;;;;13.98;12.68;;;;;;;;;;5094525;28;20020;-60
2021/09/12 00:07:28;;;;;;;12.30;11.00;;;;;;;;;;5094610;28;20046;-61
2021/09/12 00:09:53;;;;;;;14.50;13.07;;;;;;;;;;5112563;28;20428;-60
2021/09/12 00:12:18;;;;;;;12.85;11.70;;;;;;;;;;5115198;28;20031;-61
2021/09/12 00:14:44;;;;;;;15.10;13.53;;;;;;;;;;5095961;28;20390;-61
2021/09/12 00:17:09;;;;;;;12.95;11.63;;;;;;;;;;5094756;28;20325;-61
2021/09/12 00:19:34;;;;;;;11.73;10.45;;;;;;;;;;5089761;28;20107;-61
2021/09/12 00:22:00;;;;;;;9.38;8.60;;;;;;;;;;5093771;28;20498;-61
2021/09/12 00:24:25;;;;;;;9.32;8.43;;;;;;;;;;5094291;28;20012;-61
2021/09/12 00:26:51;;;;;;;10.88;9.55;;;;;;;;;;5094575;28;20019;-60
2021/09/12 00:29:16;;;;;;;9.40;8.50;;;;;;;;;;5075958;28;20077;-61
2021/09/12 00:31:42;;;;;;;9.15;8.35;;;;;;;;;;5094224;28;20022;-61
2021/09/12 00:34:07;;;;;;;9.05;8.18;;;;;;;;;;5095879;28;20096;-61
2021/09/12 00:36:32;;;;;;;10.45;9.45;;;;;;;;;;5092479;28;20012;-61
2021/09/12 00:38:58;;;;;;;12.15;9.65;;;;;;;;;;5101641;28;20095;-60
2021/09/12 00:41:23;;;;;;;10.73;9.83;;;;;;;;;;5093923;28;20020;-61
2021/09/12 00:43:48;;;;;;;12.10;10.63;;;;;;;;;;5092608;28;20772;-61
2021/09/12 00:46:13;;;;;;;10.63;9.63;;;;;;;;;;5094279;28;20090;-61
2021/09/12 00:48:39;;;;;;;11.40;10.40;;;;;;;;;;5093886;28;20032;-61
2021/09/12 00:51:04;;;;;;;11.13;10.10;;;;;;;;;;5093910;28;20027;-61
2021/09/12 00:53:30;;;;;;;10.38;9.38;;;;;;;;;;5093934;28;20031;-60
2021/09/12 00:56:00;;;;;;;9.98;9.00;;;;;;;;;;5084221;28;20028;-61
2021/09/12 00:58:25;;;;;;;11.10;9.93;;;;;;;;;;5093502;28;20022;-60
2021/09/12 01:00:50;;;;;;;9.95;9.05;;;;;;;;;;5093367;28;20106;-60
2021/09/12 01:03:15;;;;;;;11.63;10.52;;;;;;;;;;5093505;28;20024;-60
2021/09/12 01:05:41;;;;;;;11.77;10.52;;;;;;;;;;5093283;28;20044;-60
2021/09/12 01:08:07;;;;;;;16.65;11.30;;;;;;;;;;5099190;28;20012;-60
2021/09/12 01:10:32;;;;;;;12.90;10.00;;;;;;;;;;5107137;28;20016;-60
2021/09/12 01:12:57;;;;;;;11.48;10.38;;;;;;;;;;5081926;28;20047;-60
2021/09/12 01:15:23;;;;;;;11.57;10.38;;;;;;;;;;5093357;28;20028;-60
2021/09/12 01:17:48;;;;;;;11.40;10.27;;;;;;;;;;5093344;28;20035;-60
2021/09/12 01:20:13;;;;;;;10.48;9.50;;;;;;;;;;5087766;28;20013;-61
2021/09/12 01:22:38;;;;;;;10.18;8.85;;;;;;;;;;5091910;28;20081;-60
2021/09/12 01:25:04;;;;;;;9.33;8.47;;;;;;;;;;5093191;28;20013;-60
2021/09/12 01:27:29;;;;;;;8.95;8.10;;;;;;;;;;5069384;28;20594;-61
2021/09/12 01:29:54;;;;;;;9.35;8.40;;;;;;;;;;5072670;28;20040;-61
2021/09/12 01:32:22;;;;;;;9.07;8.30;;;;;;;;;;5087185;28;20016;-61
2021/09/12 01:34:47;;;;;;;8.75;7.85;;;;;;;;;;5092964;28;20278;-61
2021/09/12 01:37:12;;;;;;;10.35;9.25;;;;;;;;;;5092901;28;20026;-61
2021/09/12 01:39:38;;;;;;;10.38;9.27;;;;;;;;;;5082589;28;20378;-61
2021/09/12 01:42:03;;;;;;;9.80;8.80;;;;;;;;;;5076311;28;20020;-60
2021/09/12 01:44:28;;;;;;;10.55;9.50;;;;;;;;;;5086810;28;20323;-61
2021/09/12 01:46:54;;;;;;;9.68;8.80;;;;;;;;;;5092360;28;20028;-61
2021/09/12 01:49:20;;;;;;;9.55;8.25;;;;;;;;;;5095831;28;20083;-61
2021/09/12 01:51:45;;;;;;;8.75;7.95;;;;;;;;;;5092879;28;20099;-61
2021/09/12 01:54:11;;;;;;;8.98;8.25;;;;;;;;;;5092731;28;20108;-61
2021/09/12 01:56:36;;;;;;;9.75;8.55;;;;;;;;;;5080024;28;20055;-61
2021/09/12 01:59:02;;;;;;;10.52;9.63;;;;;;;;;;5091560;28;20024;-61
2021/09/12 02:01:27;;;;;;;10.65;9.75;;;;;;;;;;5087095;28;20020;-61
2021/09/12 02:03:52;;;;;;;10.35;9.38;;;;;;;;;;5091506;28;20024;-61
2021/09/12 02:06:18;;;;;;;10.53;9.17;;;;;;;;;;5092480;28;20036;-61
2021/09/12 02:08:43;;;;;;;10.73;8.43;;;;;;;;;;5092513;28;20250;-61
2021/09/12 02:11:09;;;;;;;8.90;8.10;;;;;;;;;;5092213;28;20512;-61
2021/09/12 02:13:34;;;;;;;9.07;8.27;;;;;;;;;;5088615;28;20021;-61
2021/09/12 02:15:59;;;;;;;9.25;8.38;;;;;;;;;;5092279;28;20096;-61
2021/09/12 02:18:25;;;;;;;8.80;7.97;;;;;;;;;;5092279;28;20378;-61
2021/09/12 02:20:50;;;;;;;9.38;8.48;;;;;;;;;;5091779;28;20289;-61
2021/09/12 02:23:15;;;;;;;8.20;7.53;;;;;;;;;;5092010;28;20024;-61
2021/09/12 02:25:40;;;;;;;9.13;8.15;;;;;;;;;;5092577;28;20423;-60
2021/09/12 02:28:06;;;;;;;9.35;8.50;;;;;;;;;;5091660;28;20250;-60
2021/09/12 02:30:31;;;;;;;9.20;8.40;;;;;;;;;;5089954;28;20038;-60
2021/09/12 02:32:56;;;;;;;9.50;8.60;;;;;;;;;;5092508;28;20249;-60
2021/09/12 02:35:22;;;;;;;8.43;7.57;;;;;;;;;;5091961;28;20040;-60
2021/09/12 02:37:47;;;;;;;8.15;7.55;;;;;;;;;;5092084;28;20028;-61
2021/09/12 02:40:13;;;;;;;7.65;6.95;;;;;;;;;;5091622;28;20016;-60
2021/09/12 02:42:38;;;;;;;9.10;8.30;;;;;;;;;;5092102;28;20051;-60
2021/09/12 02:45:04;;;;;;;9.05;6.97;;;;;;;;;;5091527;28;20020;-60
2021/09/12 02:47:29;;;;;;;8.77;7.80;;;;;;;;;;5091938;28;20479;-61
2021/09/12 02:49:55;;;;;;;8.05;7.35;;;;;;;;;;5092133;28;20024;-61
2021/09/12 02:52:20;;;;;;;8.23;7.20;;;;;;;;;;5092084;28;20028;-60
2021/09/12 02:54:45;;;;;;;9.80;8.90;;;;;;;;;;5091967;28;20299;-60
2021/09/12 02:57:10;;;;;;;7.82;7.13;;;;;;;;;;5091733;28;20740;-60
2021/09/12 02:59:35;;;;;;;11.02;7.72;;;;;;;;;;5091199;28;20117;-60
2021/09/12 03:02:01;;;;;;;8.90;8.00;;;;;;;;;;5091853;28;20054;-60
2021/09/12 03:04:26;;;;;;;8.75;8.00;;;;;;;;;;5091681;28;20311;-60
2021/09/12 03:06:51;;;;;;;10.60;7.90;;;;;;;;;;5091475;28;20471;-60
2021/09/12 03:09:16;;;;;;;8.77;7.70;;;;;;;;;;5091788;28;20262;-60
2021/09/12 03:11:41;;;;;;;9.02;8.20;;;;;;;;;;5091501;28;20431;-60
2021/09/12 03:14:07;;;;;;;8.65;7.78;;;;;;;;;;5091093;28;20028;-60
2021/09/12 03:16:32;;;;;;;9.43;8.18;;;;;;;;;;5090758;28;20020;-60
2021/09/12 03:18:57;;;;;;;9.27;8.30;;;;;;;;;;5091493;28;20020;-60
2021/09/12 03:21:22;;;;;;;9.20;8.32;;;;;;;;;;5091394;28;20736;-60
2021/09/12 03:23:47;;;;;;;9.48;8.55;;;;;;;;;;5092193;28;20024;-60
2021/09/12 03:26:13;;;;;;;9.10;8.20;;;;;;;;;;5091738;28;20052;-60
2021/09/12 03:28:38;;;;;;;9.85;8.05;;;;;;;;;;5091007;28;20020;-60
2021/09/12 03:31:04;;;;;;;10.27;8.05;;;;;;;;;;5091361;28;20532;-60
2021/09/12 03:33:29;;;;;;;9.40;8.50;;;;;;;;;;5091543;28;20070;-60
2021/09/12 03:35:54;;;;;;;8.50;7.70;;;;;;;;;;5091212;28;20021;-60
2021/09/12 03:38:20;;;;;;;9.55;8.27;;;;;;;;;;5090656;28;20035;-60
2021/09/12 03:40:45;;;;;;;8.13;7.32;;;;;;;;;;5091029;28;20048;-61
2021/09/12 03:43:10;;;;;;;7.75;6.97;;;;;;;;;;5091274;28;20012;-60
2021/09/12 03:45:35;;;;;;;7.10;6.50;;;;;;;;;;5080421;28;20368;-61
2021/09/12 03:48:01;;;;;;;9.60;8.50;;;;;;;;;;5084910;28;20028;-60
2021/09/12 03:50:26;;;;;;;9.55;8.65;;;;;;;;;;5091321;28;20016;-60
2021/09/12 03:52:52;;;;;;;9.57;8.75;;;;;;;;;;5091656;28;20028;-61
2021/09/12 03:55:17;;;;;;;10.57;9.45;;;;;;;;;;5091373;28;20068;-60
2021/09/12 03:57:42;;;;;;;9.93;9.02;;;;;;;;;;5073082;28;20385;-61
2021/09/12 04:00:08;;;;;;;9.17;8.17;;;;;;;;;;5077085;28;20028;-61
2021/09/12 04:02:36;;;;;;;12.18;8.63;;;;;;;;;;5083422;28;20744;-61
2021/09/12 04:05:02;;;;;;;9.70;8.60;;;;;;;;;;5091310;28;20077;-61
2021/09/12 04:07:27;;;;;;;9.82;8.82;;;;;;;;;;5090566;28;20028;-61
2021/09/12 04:09:52;;;;;;;10.80;8.57;;;;;;;;;;5090758;28;20024;-60
2021/09/12 04:12:17;;;;;;;9.77;8.77;;;;;;;;;;5091394;28;20656;-61
2021/09/12 04:14:42;;;;;;;12.37;8.97;;;;;;;;;;5090617;28;20285;-61
2021/09/12 04:17:08;;;;;;;11.17;9.17;;;;;;;;;;5090920;28;20278;-60
2021/09/12 04:19:33;;;;;;;8.55;7.75;;;;;;;;;;5092081;28;20329;-60
2021/09/12 04:21:58;;;;;;;8.77;8.05;;;;;;;;;;5094804;28;20035;-60
2021/09/12 04:24:24;;;;;;;12.18;7.80;;;;;;;;;;5094471;28;20016;-60
2021/09/12 04:26:50;;;;;;;8.70;7.90;;;;;;;;;;5094563;28;20097;-61
2021/09/12 04:29:15;;;;;;;10.32;9.40;;;;;;;;;;5094027;28;20471;-60
2021/09/12 04:31:40;;;;;;;9.70;8.53;;;;;;;;;;5094006;28;20081;-60
2021/09/12 04:34:05;;;;;;;10.32;9.32;;;;;;;;;;5094015;28;20286;-60
2021/09/12 04:36:30;;;;;;;9.48;8.48;;;;;;;;;;5094064;28;20062;-60
2021/09/12 04:38:55;;;;;;;9.50;8.60;;;;;;;;;;5094427;28;20155;-60
2021/09/12 04:41:21;;;;;;;9.00;8.07;;;;;;;;;;5094082;28;20262;-60
2021/09/12 04:43:46;;;;;;;8.52;7.60;;;;;;;;;;5093966;28;20490;-60
2021/09/12 04:46:11;;;;;;;9.40;8.52;;;;;;;;;;5094411;28;20031;-60
2021/09/12 04:48:37;;;;;;;10.55;8.45;;;;;;;;;;5094088;28;20031;-60
2021/09/12 04:51:02;;;;;;;10.18;9.13;;;;;;;;;;5094202;28;20027;-60
2021/09/12 04:53:27;;;;;;;10.85;9.73;;;;;;;;;;5094442;28;20032;-60
2021/09/12 04:55:52;;;;;;;10.60;9.60;;;;;;;;;;5094107;28;20490;-60
2021/09/12 04:58:17;;;;;;;11.23;9.93;;;;;;;;;;5093552;28;20031;-60
2021/09/12 05:00:43;;;;;;;9.90;9.10;;;;;;;;;;5093632;28;20020;-60
2021/09/12 05:03:08;;;;;;;11.95;10.82;;;;;;;;;;5093968;28;20082;-60
2021/09/12 05:05:33;;;;;;;10.60;9.50;;;;;;;;;;5093616;28;20012;-60
2021/09/12 05:07:58;;;;;;;10.57;9.57;;;;;;;;;;5093860;28;20243;-60
2021/09/12 05:10:23;;;;;;;11.17;10.03;;;;;;;;;;5075289;28;20023;-60
2021/09/12 05:12:49;;;;;;;12.00;10.65;;;;;;;;;;5075820;28;20324;-60
2021/09/12 05:15:14;;;;;;;12.70;11.40;;;;;;;;;;5093150;28;20028;-60
2021/09/12 05:17:39;;;;;;;12.60;11.35;;;;;;;;;;5093819;28;20424;-60
2021/09/12 05:20:05;;;;;;;11.90;10.80;;;;;;;;;;5093737;28;20031;-60
2021/09/12 05:22:30;;;;;;;14.65;12.75;;;;;;;;;;5093405;28;20269;-62
2021/09/12 05:24:56;;;;;;;11.77;10.57;;;;;;;;;;5093550;28;20103;-60
2021/09/12 05:27:21;;;;;;;12.70;11.50;;;;;;;;;;5093357;28;20020;-60
2021/09/12 05:29:46;;;;;;;13.07;11.80;;;;;;;;;;5084026;28;20024;-61
2021/09/12 05:32:11;;;;;;;13.13;11.65;;;;;;;;;;5072287;28;20035;-61
2021/09/12 05:34:37;;;;;;;12.70;11.40;;;;;;;;;;5077743;28;20044;-61
2021/09/12 05:37:02;;;;;;;12.65;11.43;;;;;;;;;;5093173;28;20032;-61
2021/09/12 05:39:27;;;;;;;13.13;11.80;;;;;;;;;;5093356;28;20016;-61
2021/09/12 05:41:52;;;;;;;13.43;11.98;;;;;;;;;;5092901;28;20018;-61
2021/09/12 05:44:18;;;;;;;13.88;12.23;;;;;;;;;;5092237;28;20020;-61
2021/09/12 05:46:44;;;;;;;14.35;12.95;;;;;;;;;;5093067;28;20032;-61
2021/09/12 05:49:09;;;;;;;14.10;12.70;;;;;;;;;;5093288;28;20413;-62
2021/09/12 05:51:34;;;;;;;14.32;12.77;;;;;;;;;;5092912;28;20095;-61
2021/09/12 05:53:59;;;;;;;14.15;11.90;;;;;;;;;;5092882;28;20024;-62
2021/09/12 05:56:25;;;;;;;13.45;12.07;;;;;;;;;;5093027;28;20107;-61
2021/09/12 05:58:50;;;;;;;14.90;13.40;;;;;;;;;;5091950;28;20022;-61
2021/09/12 06:01:15;;;;;;;12.85;11.52;;;;;;;;;;5092701;28;20320;-61
2021/09/12 06:03:41;;;;;;;14.60;13.10;;;;;;;;;;5092753;28;20063;-61
2021/09/12 06:06:06;;;;;;;14.10;12.63;;;;;;;;;;5092843;28;20081;-61
2021/09/12 06:08:31;;;;;;;16.15;13.77;;;;;;;;;;5092838;28;20024;-60
2021/09/12 06:10:56;;;;;;;15.50;13.35;;;;;;;;;;5092522;28;20047;-61
2021/09/12 06:13:25;;;;;;;15.43;13.82;;;;;;;;;;5092023;28;20020;-61
2021/09/12 06:15:50;;;;;;;15.20;13.70;;;;;;;;;;5092530;28;20031;-61
2021/09/12 06:18:15;;;;;;;15.82;14.23;;;;;;;;;;5092590;28;20024;-61
2021/09/12 06:20:40;;;;;;;15.70;14.03;;;;;;;;;;5092451;28;20023;-61
2021/09/12 06:23:06;;;;;;;15.82;14.23;;;;;;;;;;5092607;28;20353;-61
2021/09/12 06:25:31;;;;;;;15.82;14.23;;;;;;;;;;5092406;28;20519;-61
2021/09/12 06:27:56;;;;;;;15.63;14.10;;;;;;;;;;5092196;28;20032;-61
2021/09/12 06:30:21;;;;;;;15.98;14.38;;;;;;;;;;5091841;28;20024;-61
2021/09/12 06:32:47;;;;;;;15.93;14.43;;;;;;;;;;5091893;28;20107;-61
2021/09/12 06:35:12;;;;;;;17.08;15.27;;;;;;;;;;5091836;28;20139;-61
2021/09/12 06:37:37;;;;;;;15.43;13.85;;;;;;;;;;5091991;28;20102;-61
2021/09/12 06:40:03;;;;;;;13.35;12.05;;;;;;;;;;5091916;28;20018;-61
2021/09/12 06:42:29;;;;;;;14.75;13.15;;;;;;;;;;5091789;28;20089;-61
2021/09/12 06:44:54;;;;;;;15.63;14.02;;;;;;;;;;5091466;28;20016;-59
2021/09/12 06:47:19;;;;;;;16.17;14.55;;;;;;;;;;5092322;28;20073;-60
2021/09/12 06:49:44;;;;;;;15.00;13.53;;;;;;;;;;5092569;28;20078;-60
2021/09/12 06:52:10;;;;;;;15.23;13.70;;;;;;;;;;5091403;28;20277;-61
2021/09/12 06:54:35;;;;;;;15.00;13.50;;;;;;;;;;5091949;28;20771;-61
2021/09/12 06:57:00;;;;;;;15.40;14.00;;;;;;;;;;5091877;28;20369;-61
2021/09/12 06:59:25;;;;;;;14.60;12.50;;;;;;;;;;5091177;28;20035;-61
2021/09/12 07:01:50;;;;;;;13.23;12.03;;;;;;;;;;5091597;28;20081;-62
2021/09/12 07:04:16;;;;;;;13.90;12.60;;;;;;;;;;5091822;28;20662;-62
2021/09/12 07:06:41;;;;;;;13.32;12.02;;;;;;;;;;5091682;28;20471;-61
2021/09/12 07:09:06;;;;;;;13.57;12.37;;;;;;;;;;5091880;28;20500;-60
2021/09/12 07:11:31;;;;;;;13.47;12.27;;;;;;;;;;5091328;28;20270;-60
2021/09/12 07:13:56;;;;;;;13.17;11.93;;;;;;;;;;5091510;28;20277;-60
2021/09/12 07:16:21;;;;;;;12.20;11.00;;;;;;;;;;5091694;28;20369;-60
2021/09/12 07:18:47;;;;;;;13.00;11.80;;;;;;;;;;5096895;28;20756;-61
2021/09/12 07:21:12;;;;;;;12.48;11.30;;;;;;;;;;5111736;28;20257;-60
2021/09/12 07:23:37;;;;;;;12.93;11.82;;;;;;;;;;5102295;28;20016;-60
2021/09/12 07:26:03;;;;;;;12.98;11.77;;;;;;;;;;5091733;28;20020;-61
2021/09/12 07:28:28;;;;;;;12.10;11.00;;;;;;;;;;5091448;28;20023;-60
2021/09/12 07:30:53;;;;;;;10.90;9.90;;;;;;;;;;5091093;28;20097;-60
2021/09/12 07:33:18;;;;;;;11.68;10.57;;;;;;;;;;5105997;28;20016;-61
2021/09/12 07:35:43;;;;;;;10.02;8.57;;;;;;;;;;5111621;28;20103;-61
2021/09/12 07:38:09;;;;;;;10.05;9.25;;;;;;;;;;5111957;28;20119;-61
2021/09/12 07:40:34;;;;;;;10.10;9.20;;;;;;;;;;5111396;28;20027;-61
2021/09/12 07:42:59;;;;;;;9.60;8.60;;;;;;;;;;5111422;28;20023;-61
2021/09/12 07:45:24;;;;;;;9.70;8.80;;;;;;;;;;5111184;28;20294;-61
2021/09/12 07:47:50;;;;;;;9.90;9.00;;;;;;;;;;5111509;28;20027;-60
2021/09/12 07:50:15;;;;;;;8.50;7.70;;;;;;;;;;5108781;28;20047;-61
2021/09/12 07:52:42;;;;;;;8.50;7.70;;;;;;;;;;5111377;28;20619;-60
2021/09/12 07:55:08;;;;;;;8.00;7.30;;;;;;;;;;5114749;28;20054;-60
2021/09/12 07:57:34;;;;;;;8.93;8.07;;;;;;;;;;5115477;28;20373;-60
2021/09/12 07:59:59;;;;;;;8.20;7.40;;;;;;;;;;5106079;28;20088;-60
2021/09/12 08:02:24;;;;;;;8.23;7.40;;;;;;;;;;5110918;28;20284;-60
2021/09/12 08:04:49;;;;;;;8.00;7.35;;;;;;;;;;5115331;28;20284;-60
2021/09/12 08:07:15;;;;;;;7.27;6.60;;;;;;;;;;5115185;28;20022;-60
2021/09/12 08:09:40;;;;;;;4.55;3.35;;;;;;;;;;5114781;28;20262;-60
2021/09/12 08:12:05;;;;;;;4.50;3.43;;;;;;;;;;5115040;28;20062;-62
2021/09/12 08:14:30;;;;;;;3.28;2.95;;;;;;;;;;5104662;28;20602;-62
2021/09/12 08:16:56;;;;;;;2.60;2.40;;;;;;;;;;5095145;28;20024;-61
2021/09/12 08:19:21;;;;;;;2.87;1.60;;;;;;;;;;5105076;28;20272;-61
2021/09/12 08:21:46;;;;;;;3.13;2.00;;;;;;;;;;5114688;28;20273;-61
2021/09/12 08:24:11;;;;;;;4.70;4.05;;;;;;;;;;5114821;28;20076;-61
2021/09/12 08:26:37;;;;;;;4.67;4.27;;;;;;;;;;5114871;28;20019;-61
2021/09/12 08:29:02;;;;;;;4.18;3.88;;;;;;;;;;5114416;28;20264;-61
2021/09/12 08:31:27;;;;;;;4.45;4.05;;;;;;;;;;5114275;28;20023;-61
2021/09/12 08:33:52;;;;;;;5.35;4.85;;;;;;;;;;5114187;28;20066;-61
2021/09/12 08:36:17;;;;;;;4.97;4.50;;;;;;;;;;5096440;28;20023;-62
2021/09/12 08:38:43;;;;;;;4.57;4.17;;;;;;;;;;5114601;28;20057;-62
2021/09/12 08:41:08;;;;;;;4.55;4.15;;;;;;;;;;5114128;28;20318;-61
2021/09/12 08:43:35;;;;;;;6.43;4.70;;;;;;;;;;5114112;28;20055;-61
2021/09/12 08:46:01;;;;;;;4.50;4.10;;;;;;;;;;5114604;28;20023;-61
2021/09/12 08:48:26;;;;;;;4.38;3.97;;;;;;;;;;5113601;28;20007;-61
2021/09/12 08:50:51;;;;;;;4.03;3.72;;;;;;;;;;5113648;28;20047;-62
2021/09/12 08:53:16;;;;;;;5.37;3.83;;;;;;;;;;5114218;28;20047;-62
2021/09/12 08:55:42;;;;;;;4.28;3.97;;;;;;;;;;5114361;28;20332;-61
2021/09/12 08:58:07;;;;;;;4.85;4.43;;;;;;;;;;5114285;28;20471;-61
2021/09/12 09:00:32;;;;;;;4.50;4.10;;;;;;;;;;5113396;28;20068;-60
2021/09/12 09:02:58;;;;;;;4.90;4.57;;;;;;;;;;5102417;28;20031;-61
2021/09/12 09:05:27;;;;;;;4.47;4.07;;;;;;;;;;5108697;28;20026;-61
2021/09/12 09:08:02;;;;;;;4.85;4.45;;;;;;;;;;5114543;28;20023;-61
2021/09/12 09:10:27;;;;;;;5.30;4.63;;;;;;;;;;5109496;28;20023;-61
2021/09/12 09:12:55;;;;;;;5.60;5.10;;;;;;;;;;5113368;28;20424;-61
2021/09/12 09:15:21;;;;;;;5.78;5.38;;;;;;;;;;5112438;28;20077;-61
2021/09/12 09:17:47;;;;;;;5.03;4.63;;;;;;;;;;5113398;28;20024;-60
2021/09/12 09:20:32;;;;;;;6.50;6.00;;;;;;;;;;5112644;28;20050;-59
2021/09/12 09:22:58;;;;;;;6.97;6.38;;;;;;;;;;5106614;28;20088;-60
2021/09/12 09:25:24;;;;;;;6.35;5.85;;;;;;;;;;5113864;28;20015;-60
2021/09/12 09:28:02;;;;;;;6.25;5.85;;;;;;;;;;5113542;28;20038;-58
2021/09/12 09:30:54;;;;;;;6.97;6.30;;;;;;;;;;5112062;28;20028;-60
2021/09/12 09:33:23;;;;;;;7.05;6.55;;;;;;;;;;5107432;28;20056;-60
2021/09/12 09:35:50;;;;;;;7.30;6.72;;;;;;;;;;5071507;28;20040;-59
2021/09/12 09:38:15;;;;;;;7.53;6.93;;;;;;;;;;5065991;28;20036;-62
2021/09/12 09:40:54;;;;;;;7.90;7.40;;;;;;;;;;5071237;28;20383;-60
2021/09/12 09:43:19;;;;;;;7.72;7.13;;;;;;;;;;5054494;28;20170;-60
2021/09/12 09:45:44;;;;;;;7.40;6.80;;;;;;;;;;5072111;28;20401;-60
2021/09/12 09:48:13;;;;;;;6.25;5.75;;;;;;;;;;5072290;28;20279;-61
2021/09/12 09:50:39;;;;;;;5.60;5.20;;;;;;;;;;5072271;28;20158;-60
2021/09/12 09:53:09;;;;;;;6.10;5.55;;;;;;;;;;5072650;28;20484;-60
2021/09/12 09:55:35;;;;;;;5.13;4.72;;;;;;;;;;5068982;28;20031;-60
2021/09/12 09:58:00;;;;;;;6.10;4.38;;;;;;;;;;5071391;28;20032;-60
2021/09/12 10:00:26;;;;;;;5.90;5.43;;;;;;;;;;5071637;28;20023;-61
2021/09/12 10:02:52;;;;;;;4.50;4.10;;;;;;;;;;5072142;28;20020;-60
2021/09/12 10:05:17;;;;;;;4.80;4.43;;;;;;;;;;5071746;28;20435;-62
2021/09/12 10:07:43;;;;;;;3.95;3.65;;;;;;;;;;5072055;28;20024;-60
2021/09/12 10:10:09;;;;;;;3.40;2.80;;;;;;;;;;5071948;28;20055;-61
2021/09/12 10:12:36;;;;;;;5.13;2.75;;;;;;;;;;5071913;28;20107;-60
2021/09/12 10:15:04;;;;;;;2.17;2.05;;;;;;;;;;5065347;28;20021;-61
2021/09/12 10:17:31;;;;;;;3.28;2.97;;;;;;;;;;5061867;28;20031;-60
2021/09/12 10:20:10;;;;;;;2.60;2.40;;;;;;;;;;5072299;28;20412;-60
2021/09/12 10:22:48;;;;;;;2.58;2.38;;;;;;;;;;5071487;28;20017;-60
2021/09/12 10:25:15;;;;;;;2.15;2.05;;;;;;;;;;5072071;28;20490;-60
2021/09/12 10:27:42;;;;;;;2.15;1.95;;;;;;;;;;5071897;28;20052;-61
2021/09/12 10:30:19;;;;;;;2.13;1.98;;;;;;;;;;5066620;28;20025;-61
2021/09/12 10:32:45;;;;;;;1.77;1.60;;;;;;;;;;5070325;28;20021;-61
2021/09/12 10:35:11;;;;;;;2.25;2.15;;;;;;;;;;5088246;28;20371;-61
2021/09/12 10:37:36;;;;;;;2.30;2.20;;;;;;;;;;5073123;28;20112;-60
2021/09/12 10:40:02;;;;;;;2.10;1.90;;;;;;;;;;5084510;28;20090;-60
2021/09/12 10:42:40;;;;;;;2.50;2.30;;;;;;;;;;5092188;28;20016;-60
2021/09/12 10:45:18;;;;;;;3.35;2.53;;;;;;;;;;5091578;28;20103;-60
2021/09/12 10:47:43;;;;;;;2.28;2.00;;;;;;;;;;5091640;28;20024;-60
2021/09/12 10:50:28;;;;;;;2.53;2.30;;;;;;;;;;5091991;28;20028;-60
2021/09/12 10:52:56;;;;;;;2.35;2.17;;;;;;;;;;5091197;28;20354;-60
2021/09/12 10:55:21;;;;;;;2.33;2.13;;;;;;;;;;5091954;28;20024;-60
2021/09/12 10:57:46;;;;;;;2.60;2.40;;;;;;;;;;5102257;28;20019;-60
2021/09/12 11:00:15;;;;;;;3.30;3.10;;;;;;;;;;5101292;28;20407;-61
2021/09/12 11:02:45;;;;;;;2.85;2.65;;;;;;;;;;5091617;28;20360;-60
2021/09/12 11:05:24;;;;;;;3.40;3.13;;;;;;;;;;5071506;28;20033;-60
2021/09/12 11:07:50;;;;;;;2.60;2.50;;;;;;;;;;5071802;28;20052;-61
2021/09/12 11:10:32;;;;;;;3.72;3.00;;;;;;;;;;5090190;28;20020;-61
2021/09/12 11:12:58;;;;;;;3.65;3.22;;;;;;;;;;5091714;28;20237;-61
2021/09/12 11:15:23;;;;;;;3.33;3.03;;;;;;;;;;5091250;28;20520;-61
2021/09/12 11:17:53;;;;;;;3.13;2.85;;;;;;;;;;5091810;28;20021;-61
2021/09/12 11:20:18;;;;;;;3.40;3.20;;;;;;;;;;5111280;28;20027;-60
2021/09/12 11:22:52;;;;;;;3.10;2.80;;;;;;;;;;5091234;28;20012;-60
2021/09/12 11:25:20;;;;;;;2.75;2.55;;;;;;;;;;5091721;28;20378;-60
2021/09/12 11:28:02;;;;;;;2.83;2.28;;;;;;;;;;5092293;28;20024;-60
2021/09/12 11:30:27;;;;;;;2.55;2.17;;;;;;;;;;5095214;28;20102;-60
2021/09/12 11:32:52;;;;;;;1.85;1.73;;;;;;;;;;5115982;28;20490;-60
2021/09/12 11:35:17;;;;;;;2.35;2.15;;;;;;;;;;5116102;28;20050;-60
2021/09/12 11:37:43;;;;;;;1.98;1.75;;;;;;;;;;5115350;28;20019;-60
2021/09/12 11:40:08;;;;;;;3.03;1.70;;;;;;;;;;5115671;28;20019;-61
2021/09/12 11:42:34;;;;;;;2.47;1.50;;;;;;;;;;5115872;28;20301;-61
2021/09/12 11:44:59;;;;;;;1.55;1.02;;;;;;;;;;5115665;28;20085;-61
2021/09/12 11:47:25;;;;;;;1.63;1.00;;;;;;;;;;5116218;28;20019;-61
2021/09/12 11:49:58;;;;;;;1.00;1.00;;;;;;;;;;5115428;28;20028;-61
2021/09/12 11:52:53;;;;;;;1.02;0.90;;;;;;;;;;5115456;28;20092;-61
2021/09/12 11:55:19;;;;;;;1.65;0.95;;;;;;;;;;5102025;28;20036;-61
2021/09/12 11:58:02;;;;;;;1.23;1.13;;;;;;;;;;5115447;28;20024;-61
2021/09/12 12:00:28;;;;;;;1.08;1.08;;;;;;;;;;5114925;28;20024;-61
2021/09/12 12:02:54;;;;;;;1.50;1.30;;;;;;;;;;5115622;28;20026;-60
2021/09/12 12:05:19;;;;;;;1.42;0.90;;;;;;;;;;5115408;28;20029;-61
2021/09/12 12:07:45;;;;;;;1.30;0.85;;;;;;;;;;5115327;28;20091;-60
2021/09/12 12:10:28;;;;;;;0.85;0.85;;;;;;;;;;5114630;28;20110;-61
2021/09/12 12:12:53;;;;;;;0.80;0.60;;;;;;;;;;5114152;28;20074;-61
2021/09/12 12:15:29;;;;;;;1.05;0.85;;;;;;;;;;5115037;28;20043;-60
2021/09/12 12:17:54;;;;;;;1.33;0.80;;;;;;;;;;5115772;28;20030;-61
2021/09/12 12:20:20;;;;;;;2.05;0.80;;;;;;;;;;5114913;28;20098;-61
2021/09/12 12:22:45;;;;;;;1.17;1.03;;;;;;;;;;5114804;28;20116;-61
2021/09/12 12:25:11;;;;;;;1.15;1.10;;;;;;;;;;5114856;28;20353;-60
2021/09/12 12:27:40;;;;;;;1.67;1.15;;;;;;;;;;5115450;28;20068;-61
2021/09/12 12:30:06;;;;;;;1.02;0.80;;;;;;;;;;5114790;28;20015;-61
2021/09/12 12:32:31;;;;;;;1.38;1.00;;;;;;;;;;5114523;28;20525;-60
2021/09/12 12:34:57;;;;;;;1.65;1.00;;;;;;;;;;5114923;28;20494;-59
2021/09/12 12:37:32;;;;;;;1.83;1.02;;;;;;;;;;5114276;28;20019;-60
2021/09/12 12:39:58;;;;;;;0.95;0.77;;;;;;;;;;5114077;28;20099;-61
2021/09/12 12:42:42;;;;;;;1.52;0.90;;;;;;;;;;5114470;28;20058;-61
2021/09/12 12:45:16;;;;;;;2.58;0.60;;;;;;;;;;5114395;28;20027;-61
2021/09/12 12:47:41;;;;;;;1.67;0.80;;;;;;;;;;5096452;28;20023;-61
2021/09/12 12:50:07;;;;;;;1.63;1.20;;;;;;;;;;5114378;28;20034;-60
2021/09/12 12:52:32;;;;;;;3.00;0.90;;;;;;;;;;5114108;28;20277;-61
2021/09/12 12:54:58;;;;;;;1.00;0.85;;;;;;;;;;5114687;28;20099;-60
2021/09/12 12:57:24;;;;;;;1.48;0.90;;;;;;;;;;5102597;28;20405;-60
2021/09/12 12:59:50;;;;;;;2.13;0.93;;;;;;;;;;5114083;28;20098;-61
2021/09/12 13:02:15;;;;;;;0.55;0.55;;;;;;;;;;5094951;28;20265;-61
2021/09/12 13:04:40;;;;;;;0.50;0.50;;;;;;;;;;5114371;28;20020;-60
2021/09/12 13:07:06;;;;;;;0.98;0.70;;;;;;;;;;5114255;28;20110;-60
2021/09/12 13:09:31;;;;;;;2.50;0.60;;;;;;;;;;5113798;28;20181;-61
2021/09/12 13:11:56;;;;;;;0.68;0.68;;;;;;;;;;5113772;28;20305;-61
2021/09/12 13:14:21;;;;;;;0.70;0.60;;;;;;;;;;5113623;28;20024;-61
2021/09/12 13:16:47;;;;;;;0.93;0.77;;;;;;;;;;5114296;28;20276;-61
2021/09/12 13:19:12;;;;;;;0.40;0.40;;;;;;;;;;5113583;28;20759;-61
2021/09/12 13:21:37;;;;;;;1.27;0.60;;;;;;;;;;5113617;28;20058;-60
2021/09/12 13:24:02;;;;;;;0.57;0.50;;;;;;;;;;5113951;28;20352;-60
2021/09/12 13:26:28;;;;;;;0.93;0.50;;;;;;;;;;5114015;28;20031;-60
2021/09/12 13:28:53;;;;;;;0.30;0.30;;;;;;;;;;5113413;28;20024;-60
2021/09/12 13:31:18;;;;;;;0.73;0.50;;;;;;;;;;5113406;28;20841;-63
2021/09/12 13:33:49;;;;;;;0.70;0.50;;;;;;;;;;5113077;28;20051;-61
2021/09/12 13:36:14;;;;;;;1.77;0.50;;;;;;;;;;5113713;28;20016;-62
2021/09/12 13:38:39;;;;;;;0.60;0.60;;;;;;;;;;5113347;28;20378;-61
2021/09/12 13:41:05;;;;;;;0.83;0.60;;;;;;;;;;5113312;28;20023;-61
2021/09/12 13:43:30;;;;;;;2.05;0.47;;;;;;;;;;5112330;28;20023;-61
2021/09/12 13:45:57;;;;;;;1.00;0.63;;;;;;;;;;5113320;28;20066;-61
2021/09/12 13:48:22;;;;;;;0.50;0.50;;;;;;;;;;5113062;28;20344;-62
2021/09/12 13:50:47;;;;;;;0.67;0.53;;;;;;;;;;5112696;28;20118;-62
2021/09/12 13:53:13;;;;;;;0.60;0.50;;;;;;;;;;5112286;28;20092;-61
2021/09/12 13:55:38;;;;;;;0.55;0.52;;;;;;;;;;5095212;28;20312;-61
2021/09/12 13:58:03;;;;;;;1.67;0.60;;;;;;;;;;5112874;28;20023;-61
2021/09/12 14:00:29;;;;;;;0.70;0.70;;;;;;;;;;5112894;28;20448;-62
2021/09/12 14:02:54;;;;;;;0.70;0.67;;;;;;;;;;5112413;28;20045;-62
2021/09/12 14:05:19;;;;;;;0.70;0.70;;;;;;;;;;5113125;28;20031;-61
2021/09/12 14:07:44;;;;;;;0.87;0.87;;;;;;;;;;5112737;28;20106;-62
2021/09/12 14:10:10;;;;;;;1.23;0.70;;;;;;;;;;5112339;28;20032;-61
2021/09/12 14:12:35;;;;;;;0.85;0.80;;;;;;;;;;5110235;28;20088;-61
2021/09/12 14:15:01;;;;;;;1.80;1.30;;;;;;;;;;5112075;28;20152;-61
2021/09/12 14:17:26;;;;;;;1.05;0.95;;;;;;;;;;5112581;28;20341;-61
2021/09/12 14:19:51;;;;;;;2.20;1.07;;;;;;;;;;5112618;28;20477;-61
2021/09/12 14:22:17;;;;;;;1.50;0.80;;;;;;;;;;5112752;28;20623;-60
2021/09/12 14:24:51;;;;;;;0.80;0.75;;;;;;;;;;5130347;27;20542;-60
2021/09/12 14:27:16;;;;;;;0.80;0.80;;;;;;;;;;5099630;28;20067;-61
2021/09/12 14:29:42;;;;;;;1.20;0.73;;;;;;;;;;5108623;28;20027;-60